createdAt,value
2023-02-12T00:02:03.278Z,7.80
2023-02-12T00:04:33.166Z,7.77
2023-02-12T00:07:05.543Z,7.72
2023-02-12T00:09:35.407Z,7.72
2023-02-12T00:12:05.469Z,7.71
2023-02-12T00:14:35.231Z,7.69
2023-02-12T00:17:04.986Z,7.69
2023-02-12T00:19:34.846Z,7.69
2023-02-12T00:22:07.201Z,7.68
2023-02-12T00:24:36.982Z,7.67
2023-02-12T00:27:06.835Z,7.67
2023-02-12T00:29:36.632Z,7.67
2023-02-12T00:32:06.412Z,7.67
2023-02-12T00:34:36.259Z,7.67
2023-02-12T00:37:08.831Z,7.68
2023-02-12T00:39:39.321Z,7.69
2023-02-12T00:42:09.291Z,7.67
2023-02-12T00:44:39.197Z,7.68
2023-02-12T00:47:08.965Z,7.69
2023-02-12T00:49:38.731Z,7.69
2023-02-12T00:52:11.355Z,7.71
2023-02-12T00:54:41.319Z,7.75
2023-02-12T00:57:11.089Z,7.75
2023-02-12T00:59:42.405Z,7.77
2023-02-12T01:02:12.191Z,7.78
2023-02-12T01:04:42.102Z,7.77
2023-02-12T01:07:14.684Z,7.76
2023-02-12T01:09:44.467Z,7.76
2023-02-12T01:12:14.248Z,7.76
2023-02-12T01:14:44.007Z,7.76
2023-02-12T01:17:13.895Z,7.77
2023-02-12T01:19:43.685Z,7.76
2023-02-12T01:22:16.106Z,7.76
2023-02-12T01:24:46.176Z,7.76
2023-02-12T01:27:16.008Z,7.78
2023-02-12T01:29:45.997Z,7.79
2023-02-12T01:32:15.841Z,7.82
2023-02-12T01:34:45.635Z,7.84
2023-02-12T01:37:18.020Z,7.86
2023-02-12T01:39:47.771Z,7.88
2023-02-12T01:42:19.114Z,7.87
2023-02-12T01:45:09.534Z,7.87
2023-02-12T01:47:39.270Z,7.87
2023-02-12T01:50:13.449Z,7.89
2023-02-12T01:52:50.783Z,7.89
2023-02-12T01:55:22.395Z,7.88
2023-02-12T01:57:52.962Z,7.86
2023-02-12T02:00:25.603Z,7.86
2023-02-12T02:02:58.422Z,7.89
2023-02-12T02:05:34.177Z,7.87
2023-02-12T02:08:07.032Z,7.88
2023-02-12T02:10:36.785Z,7.87
2023-02-12T02:13:19.192Z,7.87
2023-02-12T02:15:52.378Z,7.87
2023-02-12T02:18:28.527Z,7.88
2023-02-12T02:21:30.193Z,7.86
2023-02-12T02:24:20.942Z,7.84
2023-02-12T02:27:14.220Z,7.84
2023-02-12T02:30:15.564Z,7.84
2023-02-12T02:32:52.923Z,7.83
2023-02-12T02:35:30.582Z,7.84
2023-02-12T02:38:10.667Z,7.78
2023-02-12T02:40:48.552Z,7.74
2023-02-12T02:43:22.193Z,7.71
2023-02-12T02:45:58.822Z,7.71
2023-02-12T02:48:33.985Z,7.70
2023-02-12T02:51:07.678Z,7.69
2023-02-12T02:53:42.611Z,7.66
2023-02-12T02:56:17.746Z,7.67
2023-02-12T02:58:51.523Z,7.66
2023-02-12T03:01:27.134Z,7.65
2023-02-12T03:04:04.758Z,7.65
2023-02-12T03:06:40.639Z,7.65
2023-02-12T03:09:18.715Z,7.64
2023-02-12T03:11:51.002Z,7.65
2023-02-12T03:14:25.071Z,7.63
2023-02-12T03:17:01.470Z,7.64
2023-02-12T03:19:39.051Z,7.64
2023-02-12T03:22:12.167Z,7.65
2023-02-12T03:24:46.023Z,7.66
2023-02-12T03:27:22.518Z,7.66
2023-02-12T03:29:52.428Z,7.67
2023-02-12T03:32:33.638Z,7.67
2023-02-12T03:35:13.146Z,7.68
2023-02-12T03:37:49.439Z,7.65
2023-02-12T03:40:23.597Z,7.65
2023-02-12T03:43:00.721Z,7.63
2023-02-12T03:45:43.469Z,7.61
2023-02-12T03:48:23.192Z,7.59
2023-02-12T03:50:57.404Z,7.57
2023-02-12T03:53:28.682Z,7.54
2023-02-12T03:56:04.824Z,7.54
2023-02-12T03:58:38.411Z,7.54
2023-02-12T04:01:08.852Z,7.55
2023-02-12T04:03:41.992Z,7.55
2023-02-12T04:06:23.258Z,7.56
2023-02-12T04:08:53.089Z,7.57
2023-02-12T04:11:32.404Z,7.58
2023-02-12T04:14:25.640Z,7.58
2023-02-12T04:17:03.051Z,7.58
2023-02-12T04:19:43.155Z,7.58
2023-02-12T04:22:26.427Z,7.56
2023-02-12T04:25:09.958Z,7.55
2023-02-12T04:27:50.918Z,7.53
2023-02-12T04:30:25.611Z,7.51
2023-02-12T04:33:02.474Z,7.50
2023-02-12T04:35:39.665Z,7.51
2023-02-12T04:38:14.418Z,7.50
2023-02-12T04:40:45.518Z,7.52
2023-02-12T04:43:15.301Z,7.51
2023-02-12T04:45:45.354Z,7.49
2023-02-12T04:48:15.163Z,7.47
2023-02-12T04:50:47.525Z,7.45
2023-02-12T04:53:17.423Z,7.46
2023-02-12T04:55:47.822Z,7.45
2023-02-12T04:58:17.593Z,7.45
2023-02-12T05:00:47.499Z,7.45
2023-02-12T05:03:17.262Z,7.45
2023-02-12T05:05:49.764Z,7.45
2023-02-12T05:08:19.531Z,7.44
2023-02-12T05:10:49.289Z,7.44
2023-02-12T05:13:19.026Z,7.46
2023-02-12T05:15:48.791Z,7.46
2023-02-12T05:18:18.642Z,7.47
2023-02-12T05:20:58.473Z,7.47
2023-02-12T05:23:30.089Z,7.45
2023-02-12T05:26:02.458Z,7.46
2023-02-12T05:28:32.693Z,7.46
2023-02-12T05:31:03.677Z,7.46
2023-02-12T05:33:33.769Z,7.47
2023-02-12T05:36:12.517Z,7.45
2023-02-12T05:38:42.806Z,7.43
2023-02-12T05:41:14.596Z,7.43
2023-02-12T05:43:45.616Z,7.41
2023-02-12T05:46:16.745Z,7.39
2023-02-12T05:48:46.534Z,7.37
2023-02-12T05:51:22.226Z,7.36
2023-02-12T05:53:52.965Z,7.33
2023-02-12T05:56:24.298Z,7.29
2023-02-12T05:58:57.151Z,7.24
2023-02-12T06:01:31.430Z,7.23
2023-02-12T06:04:02.642Z,7.22
2023-02-12T06:06:36.522Z,7.23
2023-02-12T06:09:06.424Z,7.21
2023-02-12T06:11:36.199Z,7.20
2023-02-12T06:14:06.525Z,7.20
2023-02-12T06:16:37.818Z,7.19
2023-02-12T06:19:09.417Z,7.20
2023-02-12T06:21:41.904Z,7.20
2023-02-12T06:24:12.895Z,7.20
2023-02-12T06:26:42.787Z,7.23
2023-02-12T06:29:13.376Z,7.25
2023-02-12T06:31:43.511Z,7.27
2023-02-12T06:34:18.185Z,7.29
2023-02-12T06:36:51.256Z,7.31
2023-02-12T06:39:21.014Z,7.33
2023-02-12T06:41:50.833Z,7.33
2023-02-12T06:44:20.610Z,7.33
2023-02-12T06:46:50.440Z,7.34
2023-02-12T06:49:20.226Z,7.36
2023-02-12T06:51:52.588Z,7.37
2023-02-12T06:54:22.374Z,7.35
2023-02-12T06:56:52.144Z,7.37
2023-02-12T06:59:22.033Z,7.37
2023-02-12T07:01:52.004Z,7.36
2023-02-12T07:04:21.853Z,7.35
2023-02-12T07:06:54.805Z,7.35
2023-02-12T07:09:24.657Z,7.36
2023-02-12T07:11:56.822Z,7.36
2023-02-12T07:14:26.839Z,7.39
2023-02-12T07:16:57.447Z,7.40
2023-02-12T07:19:27.517Z,7.41
2023-02-12T07:22:00.124Z,7.43
2023-02-12T07:24:30.031Z,7.45
2023-02-12T07:26:59.801Z,7.46
2023-02-12T07:29:29.550Z,7.47
2023-02-12T07:31:59.442Z,7.46
2023-02-12T07:34:29.329Z,7.47
2023-02-12T07:37:01.731Z,7.46
2023-02-12T07:39:31.555Z,7.47
2023-02-12T07:42:01.512Z,7.49
2023-02-12T07:44:32.494Z,7.49
2023-02-12T07:47:03.850Z,7.50
2023-02-12T07:49:33.669Z,7.50
2023-02-12T07:52:06.199Z,7.49
2023-02-12T07:54:36.191Z,7.49
2023-02-12T07:57:06.226Z,7.49
2023-02-12T07:59:36.236Z,7.49
2023-02-12T08:02:06.065Z,7.49
2023-02-12T08:04:35.911Z,7.50
2023-02-12T08:07:08.280Z,7.52
2023-02-12T08:09:38.275Z,7.55
2023-02-12T08:12:08.538Z,7.56
2023-02-12T08:14:38.397Z,7.58
2023-02-12T08:17:08.821Z,7.59
2023-02-12T08:19:38.927Z,7.59
2023-02-12T08:22:11.611Z,7.62
2023-02-12T08:24:42.596Z,7.64
2023-02-12T08:27:12.386Z,7.67
2023-02-12T08:29:42.167Z,7.68
2023-02-12T08:32:14.562Z,7.71
2023-02-12T08:34:44.737Z,7.72
2023-02-12T08:37:17.110Z,7.76
2023-02-12T08:39:46.919Z,7.76
2023-02-12T08:42:16.687Z,7.78
2023-02-12T08:44:46.447Z,7.80
2023-02-12T08:47:16.218Z,7.83
2023-02-12T08:49:46.014Z,7.82
2023-02-12T08:52:19.608Z,7.85
2023-02-12T08:54:49.520Z,7.85
2023-02-12T08:57:19.272Z,7.88
2023-02-12T08:59:49.221Z,7.90
2023-02-12T09:02:19.361Z,7.92
2023-02-12T09:04:49.173Z,7.93
2023-02-12T09:07:21.564Z,7.98
2023-02-12T09:09:51.351Z,7.98
2023-02-12T09:12:21.154Z,8.00
2023-02-12T09:14:52.022Z,8.03
2023-02-12T09:17:21.840Z,8.06
2023-02-12T09:19:51.570Z,8.08
2023-02-12T09:22:23.923Z,8.15
2023-02-12T09:24:53.676Z,8.18
2023-02-12T09:27:23.508Z,8.22
2023-02-12T09:29:53.267Z,8.24
2023-02-12T09:32:23.014Z,8.26
2023-02-12T09:34:52.799Z,8.29
2023-02-12T09:37:25.160Z,8.33
2023-02-12T09:39:54.944Z,8.36
2023-02-12T09:42:37.972Z,8.40
2023-02-12T09:45:16.729Z,8.45
2023-02-12T09:47:54.449Z,8.50
2023-02-12T09:50:45.966Z,8.55
2023-02-12T09:53:26.062Z,8.59
2023-02-12T09:55:56.243Z,8.62
2023-02-12T09:58:35.668Z,8.67
2023-02-12T10:01:14.755Z,8.69
2023-02-12T10:03:46.300Z,8.71
2023-02-12T10:06:19.847Z,8.73
2023-02-12T10:09:17.983Z,8.78
2023-02-12T10:11:59.657Z,8.80
2023-02-12T10:14:53.835Z,8.82
2023-02-12T10:17:36.222Z,8.82
2023-02-12T10:20:35.614Z,8.83
2023-02-12T10:23:23.343Z,8.84
2023-02-12T10:25:59.416Z,8.87
2023-02-12T10:28:33.435Z,8.89
2023-02-12T10:31:06.502Z,8.93
2023-02-12T10:33:40.248Z,8.98
2023-02-12T10:36:22.707Z,9.05
2023-02-12T10:38:57.436Z,9.10
2023-02-12T10:41:31.375Z,9.12
2023-02-12T10:44:01.287Z,9.15
2023-02-12T10:46:34.047Z,9.20
2023-02-12T10:49:04.137Z,9.24
2023-02-12T10:51:59.316Z,9.28
2023-02-12T10:54:46.657Z,9.33
2023-02-12T10:57:27.695Z,9.38
2023-02-12T11:00:00.070Z,9.42
2023-02-12T11:02:32.821Z,9.46
2023-02-12T11:05:18.566Z,9.53
2023-02-12T11:07:54.257Z,9.60
2023-02-12T11:10:24.923Z,9.63
2023-02-12T11:12:58.504Z,9.66
2023-02-12T11:15:31.424Z,9.67
2023-02-12T11:18:05.682Z,9.68
2023-02-12T11:20:41.355Z,9.72
2023-02-12T11:23:27.324Z,9.77
2023-02-12T11:26:00.491Z,9.80
2023-02-12T11:28:34.396Z,9.85
2023-02-12T11:31:07.041Z,9.89
2023-02-12T11:33:38.126Z,9.92
2023-02-12T11:36:18.184Z,9.99
2023-02-12T11:38:54.569Z,10.04
2023-02-12T11:41:29.528Z,10.11
2023-02-12T11:44:02.008Z,10.18
2023-02-12T11:46:32.014Z,10.25
2023-02-12T11:49:02.169Z,10.32
2023-02-12T11:51:34.823Z,10.39
2023-02-12T11:54:06.933Z,10.45
2023-02-12T11:56:45.641Z,10.50
2023-02-12T11:59:30.461Z,10.53
2023-02-12T12:02:04.851Z,10.57
2023-02-12T12:04:37.480Z,10.64
2023-02-12T12:07:15.518Z,10.69
2023-02-12T12:09:50.413Z,10.76
2023-02-12T12:12:24.774Z,10.81
2023-02-12T12:15:14.711Z,10.85
2023-02-12T12:18:02.066Z,10.88
2023-02-12T12:20:39.532Z,10.89
2023-02-12T12:23:14.074Z,10.91
2023-02-12T12:25:49.366Z,10.94
2023-02-12T12:28:32.064Z,10.95
2023-02-12T12:31:17.563Z,10.92
2023-02-12T12:33:50.759Z,10.91
2023-02-12T12:37:05.448Z,10.93
2023-02-12T12:39:39.567Z,10.90
2023-02-12T12:42:34.288Z,10.89
2023-02-12T12:45:22.231Z,10.85
2023-02-12T12:48:12.908Z,10.78
2023-02-12T12:51:08.524Z,10.74
2023-02-12T12:53:49.933Z,10.66
2023-02-12T12:56:30.654Z,10.63
2023-02-12T12:59:30.296Z,10.59
2023-02-12T13:02:24.887Z,10.55
2023-02-12T13:05:26.030Z,10.50
2023-02-12T13:08:06.636Z,10.47
2023-02-12T13:10:43.162Z,10.43
2023-02-12T13:13:23.599Z,10.38
2023-02-12T13:15:59.132Z,10.37
2023-02-12T13:18:43.918Z,10.38
2023-02-12T13:21:24.243Z,10.39
2023-02-12T13:23:57.609Z,10.39
2023-02-12T13:26:33.101Z,10.42
2023-02-12T13:29:10.020Z,10.43
2023-02-12T13:31:51.056Z,10.44
2023-02-12T13:34:21.996Z,10.45
2023-02-12T13:36:54.635Z,10.49
2023-02-12T13:39:34.185Z,10.51
2023-02-12T13:42:19.586Z,10.54
2023-02-12T13:45:00.207Z,10.55
2023-02-12T13:47:38.124Z,10.56
2023-02-12T13:50:22.082Z,10.59
2023-02-12T13:53:01.585Z,10.55
2023-02-12T13:55:36.906Z,10.52
2023-02-12T13:58:37.631Z,10.51
2023-02-12T14:01:10.276Z,10.49
2023-02-12T14:03:40.778Z,10.49
2023-02-12T14:06:13.110Z,10.50
2023-02-12T14:08:48.007Z,10.47
2023-02-12T14:11:20.585Z,10.44
2023-02-12T14:13:56.915Z,10.40
2023-02-12T14:16:41.710Z,10.38
2023-02-12T14:19:41.443Z,10.34
2023-02-12T14:22:16.300Z,10.30
2023-02-12T14:24:58.800Z,10.27
2023-02-12T14:27:33.780Z,10.24
2023-02-12T14:30:28.012Z,10.22
2023-02-12T14:33:22.854Z,10.18
2023-02-12T14:36:17.016Z,10.16
2023-02-12T14:39:07.831Z,10.15
2023-02-12T14:41:41.985Z,10.14
2023-02-12T14:44:44.661Z,10.14
2023-02-12T14:47:34.093Z,10.14
2023-02-12T14:50:09.309Z,10.11
2023-02-12T14:52:43.510Z,10.12
2023-02-12T14:55:25.149Z,10.08
2023-02-12T14:58:01.671Z,10.06
2023-02-12T15:00:35.582Z,10.06
2023-02-12T15:03:18.958Z,10.07
2023-02-12T15:05:55.854Z,10.08
2023-02-12T15:08:44.054Z,10.08
2023-02-12T15:11:24.236Z,10.06
2023-02-12T15:14:02.183Z,10.07
2023-02-12T15:16:43.070Z,10.07
2023-02-12T15:19:27.446Z,10.10
2023-02-12T15:21:57.646Z,10.08
2023-02-12T15:24:29.376Z,10.08
2023-02-12T15:27:01.577Z,10.08
2023-02-12T15:29:43.949Z,10.08
2023-02-12T15:32:22.056Z,10.07
2023-02-12T15:34:53.116Z,10.08
2023-02-12T15:37:26.098Z,10.08
2023-02-12T15:39:59.365Z,10.09
2023-02-12T15:42:32.367Z,10.10
2023-02-12T15:45:24.819Z,10.10
2023-02-12T15:48:13.261Z,10.09
2023-02-12T15:50:54.228Z,10.08
2023-02-12T15:53:26.210Z,10.07
2023-02-12T15:55:56.471Z,10.07
2023-02-12T15:58:29.684Z,10.06
2023-02-12T16:01:04.626Z,10.05
2023-02-12T16:03:36.534Z,10.03
2023-02-12T16:06:11.429Z,10.04
2023-02-12T16:08:43.044Z,10.04
2023-02-12T16:11:16.642Z,10.04
2023-02-12T16:13:49.735Z,10.04
2023-02-12T16:16:26.353Z,10.06
2023-02-12T16:19:10.811Z,10.07
2023-02-12T16:21:41.970Z,10.03
2023-02-12T16:24:25.520Z,10.05
2023-02-12T16:26:55.710Z,10.02
2023-02-12T16:29:25.726Z,10.01
2023-02-12T16:32:01.335Z,10.01
2023-02-12T16:34:34.540Z,10.01
2023-02-12T16:37:05.082Z,10.01
2023-02-12T16:40:07.437Z,10.02
2023-02-12T16:42:37.214Z,10.00
2023-02-12T16:45:37.297Z,10.01
2023-02-12T16:48:18.939Z,10.00
2023-02-12T16:50:52.200Z,10.00
2023-02-12T16:53:43.767Z,10.00
2023-02-12T16:56:21.306Z,10.00
2023-02-12T16:58:55.316Z,9.99
2023-02-12T17:01:28.011Z,9.97
2023-02-12T17:04:02.436Z,9.98
2023-02-12T17:06:34.215Z,9.96
2023-02-12T17:09:04.098Z,9.95
2023-02-12T17:11:33.934Z,9.94
2023-02-12T17:14:03.695Z,9.94
2023-02-12T17:16:33.469Z,9.95
2023-02-12T17:19:05.848Z,9.96
2023-02-12T17:21:39.692Z,9.96
2023-02-12T17:24:14.353Z,9.97
2023-02-12T17:26:44.135Z,9.98
2023-02-12T17:29:14.026Z,9.97
2023-02-12T17:31:43.842Z,9.98
2023-02-12T17:34:17.344Z,9.97
2023-02-12T17:36:47.146Z,9.97
2023-02-12T17:39:19.479Z,9.98
2023-02-12T17:41:49.787Z,9.99
2023-02-12T17:44:19.645Z,9.96
2023-02-12T17:46:49.456Z,9.97
2023-02-12T17:49:21.914Z,9.96
2023-02-12T17:51:51.754Z,9.97
2023-02-12T17:54:21.740Z,9.97
2023-02-12T17:56:51.590Z,9.96
2023-02-12T17:59:21.526Z,9.94
2023-02-12T18:01:51.328Z,9.93
2023-02-12T18:04:23.747Z,9.93
2023-02-12T18:06:53.532Z,9.94
2023-02-12T18:09:23.296Z,9.95
2023-02-12T18:11:53.056Z,9.95
2023-02-12T18:14:22.912Z,9.94
2023-02-12T18:16:52.685Z,9.94
2023-02-12T18:19:25.060Z,9.95
2023-02-12T18:21:54.831Z,9.95
2023-02-12T18:24:24.704Z,9.94
2023-02-12T18:26:54.530Z,9.92
2023-02-12T18:29:24.279Z,9.94
2023-02-12T18:31:54.279Z,9.94
2023-02-12T18:34:27.011Z,9.95
2023-02-12T18:36:56.971Z,9.93
2023-02-12T18:39:26.762Z,9.92
2023-02-12T18:41:56.582Z,9.93
2023-02-12T18:44:26.341Z,9.92
2023-02-12T18:46:57.478Z,9.90
2023-02-12T18:49:30.281Z,9.90
2023-02-12T18:52:00.038Z,9.89
2023-02-12T18:54:29.821Z,9.86
2023-02-12T18:56:59.604Z,9.88
2023-02-12T18:59:29.463Z,9.86
2023-02-12T19:01:59.337Z,9.87
2023-02-12T19:04:31.791Z,9.87
2023-02-12T19:07:01.615Z,9.83
2023-02-12T19:09:31.365Z,9.81
2023-02-12T19:12:02.064Z,9.80
2023-02-12T19:14:31.998Z,9.77
2023-02-12T19:17:01.827Z,9.75
2023-02-12T19:19:34.219Z,9.75
2023-02-12T19:22:03.959Z,9.73
2023-02-12T19:24:45.944Z,9.74
2023-02-12T19:27:16.279Z,9.74
2023-02-12T19:29:46.394Z,9.72
2023-02-12T19:32:16.183Z,9.72
2023-02-12T19:34:48.840Z,9.71
2023-02-12T19:37:18.619Z,9.70
2023-02-12T19:39:48.373Z,9.69
2023-02-12T19:42:18.170Z,9.68
2023-02-12T19:44:48.028Z,9.67
2023-02-12T19:47:17.889Z,9.64
2023-02-12T19:49:50.366Z,9.61
2023-02-12T19:52:20.147Z,9.60
2023-02-12T19:54:49.900Z,9.57
2023-02-12T19:57:19.667Z,9.57
2023-02-12T19:59:49.562Z,9.53
2023-02-12T20:02:19.416Z,9.53
2023-02-12T20:04:51.788Z,9.53
2023-02-12T20:07:21.555Z,9.51
2023-02-12T20:09:53.363Z,9.50
2023-02-12T20:12:23.138Z,9.49
2023-02-12T20:14:52.903Z,9.47
2023-02-12T20:17:22.635Z,9.43
2023-02-12T20:19:54.980Z,9.39
2023-02-12T20:22:24.756Z,9.38
2023-02-12T20:24:54.529Z,9.37
2023-02-12T20:27:24.278Z,9.35
2023-02-12T20:29:54.059Z,9.33
2023-02-12T20:32:23.807Z,9.32
2023-02-12T20:34:56.576Z,9.31
2023-02-12T20:37:26.322Z,9.30
2023-02-12T20:39:56.084Z,9.28
2023-02-12T20:42:25.856Z,9.29
2023-02-12T20:44:55.658Z,9.29
2023-02-12T20:47:29.021Z,9.27
2023-02-12T20:50:01.459Z,9.25
2023-02-12T20:52:32.183Z,9.25
2023-02-12T20:55:01.980Z,9.23
2023-02-12T20:57:33.657Z,9.21
2023-02-12T21:00:03.522Z,9.20
2023-02-12T21:02:33.380Z,9.18
2023-02-12T21:05:06.019Z,9.16
2023-02-12T21:07:35.791Z,9.12
2023-02-12T21:10:05.554Z,9.07
2023-02-12T21:12:35.315Z,9.06
2023-02-12T21:15:05.211Z,9.03
2023-02-12T21:17:35.772Z,9.02
2023-02-12T21:20:12.604Z,9.01
2023-02-12T21:22:42.384Z,8.99
2023-02-12T21:25:12.241Z,9.00
2023-02-12T21:27:42.476Z,9.02
2023-02-12T21:30:12.887Z,9.02
2023-02-12T21:32:42.663Z,9.01
2023-02-12T21:35:15.024Z,9.03
2023-02-12T21:37:44.820Z,9.04
2023-02-12T21:40:15.479Z,9.02
2023-02-12T21:42:45.246Z,9.02
2023-02-12T21:45:15.000Z,9.00
2023-02-12T21:47:44.753Z,8.99
2023-02-12T21:50:17.224Z,8.99
2023-02-12T21:52:47.006Z,8.99
2023-02-12T21:55:16.859Z,8.96
2023-02-12T21:57:47.436Z,8.94
2023-02-12T22:00:18.644Z,8.94
2023-02-12T22:02:48.478Z,8.93
2023-02-12T22:05:20.980Z,8.90
2023-02-12T22:07:51.863Z,8.86
2023-02-12T22:10:22.001Z,8.87
2023-02-12T22:12:51.743Z,8.86
2023-02-12T22:15:21.624Z,8.87
2023-02-12T22:17:51.382Z,8.87
2023-02-12T22:20:23.894Z,8.88
2023-02-12T22:22:53.643Z,8.87
2023-02-12T22:25:23.409Z,8.87
2023-02-12T22:27:53.201Z,8.86
2023-02-12T22:30:23.247Z,8.87
2023-02-12T22:32:52.979Z,8.88
2023-02-12T22:35:25.332Z,8.89
2023-02-12T22:37:55.066Z,8.90
2023-02-12T22:40:25.054Z,8.92
2023-02-12T22:42:54.810Z,8.92
2023-02-12T22:45:24.624Z,8.92
2023-02-12T22:47:54.404Z,8.92
2023-02-12T22:50:26.840Z,8.90
2023-02-12T22:52:56.578Z,8.88
2023-02-12T22:55:26.324Z,8.87
2023-02-12T22:57:56.082Z,8.87
2023-02-12T23:00:25.973Z,8.86
2023-02-12T23:02:55.715Z,8.83
2023-02-12T23:05:28.266Z,8.81
2023-02-12T23:07:58.067Z,8.80
2023-02-12T23:10:27.826Z,8.76
2023-02-12T23:12:57.580Z,8.75
2023-02-12T23:15:27.430Z,8.75
2023-02-12T23:17:57.228Z,8.76
2023-02-12T23:20:29.662Z,8.76
2023-02-12T23:22:59.423Z,8.74
2023-02-12T23:25:29.200Z,8.76
2023-02-12T23:27:59.140Z,8.76
2023-02-12T23:30:28.978Z,8.76
2023-02-12T23:32:59.125Z,8.75
2023-02-12T23:35:31.720Z,8.74
2023-02-12T23:38:01.464Z,8.73
2023-02-12T23:40:31.233Z,8.73
2023-02-12T23:43:01.029Z,8.73
2023-02-12T23:45:31.580Z,8.72
2023-02-12T23:48:01.362Z,8.73
2023-02-12T23:50:33.777Z,8.76
2023-02-12T23:53:03.565Z,8.76
2023-02-12T23:55:33.326Z,8.78
2023-02-12T23:58:05.117Z,8.79
